createdAt,value
2023-01-17T00:02:33.570Z,12.40
2023-01-17T00:07:53.963Z,10.10
2023-01-17T00:12:58.477Z,11.40
2023-01-17T00:18:00.195Z,15.60
2023-01-17T00:23:23.978Z,12.40
2023-01-17T00:28:26.607Z,12.30
2023-01-17T00:33:28.841Z,6.80
2023-01-17T00:38:32.524Z,19.20
2023-01-17T00:43:53.040Z,10.30
2023-01-17T00:49:13.084Z,14.00
2023-01-17T00:54:34.000Z,14.50
2023-01-17T00:59:55.129Z,11.80
2023-01-17T01:05:15.058Z,10.20
2023-01-17T01:10:35.721Z,12.10
2023-01-17T01:15:55.591Z,13.70
2023-01-17T01:21:21.089Z,12.30
2023-01-17T01:26:41.683Z,10.40
2023-01-17T01:32:01.697Z,16.20
2023-01-17T01:37:03.363Z,9.60
2023-01-17T01:42:13.391Z,12.10
2023-01-17T01:52:25.102Z,11.90
2023-01-17T01:57:32.123Z,11.60
2023-01-17T02:02:34.963Z,10.20
2023-01-17T02:08:02.474Z,16.20
2023-01-17T02:13:04.992Z,13.30
2023-01-17T02:18:18.031Z,11.20
2023-01-17T02:23:58.053Z,14.40
2023-01-17T02:29:24.615Z,12.40
2023-01-17T02:34:41.321Z,12.10
2023-01-17T02:40:07.230Z,16.20
2023-01-17T02:45:14.930Z,14.00
2023-01-17T02:50:23.549Z,12.10
2023-01-17T02:55:43.496Z,12.00
2023-01-17T03:00:51.885Z,16.00
2023-01-17T03:06:11.850Z,8.70
2023-01-17T03:11:14.262Z,12.40
2023-01-17T03:16:21.192Z,10.80
2023-01-17T03:21:24.276Z,13.20
2023-01-17T03:26:25.809Z,9.20
2023-01-17T03:31:27.337Z,12.30
2023-01-17T03:36:28.877Z,11.30
2023-01-17T03:41:30.389Z,10.20
2023-01-17T03:46:31.993Z,8.60
2023-01-17T03:51:33.511Z,12.60
2023-01-17T03:56:35.060Z,10.30
2023-01-17T04:01:36.635Z,15.00
2023-01-17T04:06:38.601Z,14.40
2023-01-17T04:11:40.088Z,22.50
2023-01-17T04:16:41.656Z,11.00
2023-01-17T04:21:43.160Z,12.80
2023-01-17T04:26:44.680Z,9.90
2023-01-17T04:31:47.820Z,17.70
2023-01-17T04:36:49.503Z,17.80
2023-01-17T04:41:50.987Z,11.90
2023-01-17T04:46:52.484Z,16.60
2023-01-17T04:51:54.012Z,12.00
2023-01-17T04:56:55.548Z,11.00
2023-01-17T05:01:57.100Z,10.50
2023-01-17T05:06:59.042Z,14.90
2023-01-17T05:12:00.734Z,13.40
2023-01-17T05:17:04.796Z,11.20
2023-01-17T05:22:15.037Z,11.30
2023-01-17T05:27:16.809Z,12.70
2023-01-17T05:32:18.485Z,11.60
2023-01-17T05:37:20.963Z,13.30
2023-01-17T05:42:22.565Z,11.40
2023-01-17T05:47:24.082Z,14.40
2023-01-17T05:52:25.565Z,12.00
2023-01-17T05:57:27.148Z,10.10
2023-01-17T06:02:28.685Z,11.70
2023-01-17T06:07:31.853Z,13.90
2023-01-17T06:12:33.334Z,11.30
2023-01-17T06:17:35.670Z,14.50
2023-01-17T06:22:37.332Z,14.40
2023-01-17T06:27:38.854Z,11.80
2023-01-17T06:32:40.428Z,9.60
2023-01-17T06:37:41.953Z,15.20
2023-01-17T06:42:43.869Z,12.90
2023-01-17T06:47:45.679Z,14.20
2023-01-17T06:53:05.393Z,18.00
2023-01-17T06:58:07.036Z,17.70
2023-01-17T07:03:20.039Z,15.30
2023-01-17T07:08:21.823Z,13.40
2023-01-17T07:13:23.366Z,13.40
2023-01-17T07:18:24.888Z,10.60
2023-01-17T07:23:26.519Z,14.30
2023-01-17T07:28:29.388Z,10.80
2023-01-17T07:33:30.965Z,12.20
2023-01-17T07:38:32.483Z,11.20
2023-01-17T07:43:35.512Z,17.30
2023-01-17T07:48:37.092Z,12.30
2023-01-17T07:53:38.567Z,11.10
2023-01-17T07:58:40.114Z,7.10
2023-01-17T08:03:42.385Z,5.80
2023-01-17T08:08:44.581Z,16.60
2023-01-17T08:13:47.140Z,12.00
2023-01-17T08:18:48.808Z,9.90
2023-01-17T08:23:51.955Z,8.50
2023-01-17T08:29:00.442Z,12.30
2023-01-17T08:34:02.372Z,12.00
2023-01-17T08:39:03.924Z,9.70
2023-01-17T08:44:05.852Z,9.40
2023-01-17T08:49:09.429Z,12.60
2023-01-17T08:54:13.008Z,13.10
2023-01-17T08:59:14.719Z,8.80
2023-01-17T09:04:16.354Z,15.40
2023-01-17T09:09:18.464Z,11.90
2023-01-17T09:14:20.024Z,11.40
2023-01-17T09:19:21.528Z,11.70
2023-01-17T09:24:23.147Z,12.90
2023-01-17T09:29:24.764Z,10.70
2023-01-17T09:34:28.079Z,11.80
2023-01-17T09:39:29.884Z,13.50
2023-01-17T09:44:38.023Z,14.00
2023-01-17T09:49:44.730Z,10.20
2023-01-17T09:54:48.716Z,15.50
2023-01-17T10:00:12.666Z,13.70
2023-01-17T10:05:16.972Z,14.80
2023-01-17T10:10:44.909Z,15.00
2023-01-17T10:15:51.939Z,9.10
2023-01-17T10:20:56.372Z,10.60
2023-01-17T10:26:03.258Z,9.90
2023-01-17T10:31:26.002Z,12.80
2023-01-17T10:36:31.540Z,13.60
2023-01-17T10:41:38.283Z,10.80
2023-01-17T10:47:11.329Z,8.90
2023-01-17T10:52:13.049Z,9.30
2023-01-17T10:57:26.255Z,10.90
2023-01-17T11:02:33.251Z,15.70
2023-01-17T11:07:34.860Z,9.70
2023-01-17T11:12:45.130Z,16.70
2023-01-17T11:17:52.916Z,16.90
2023-01-17T11:23:17.412Z,13.30
2023-01-17T11:28:18.968Z,15.20
2023-01-17T11:33:49.119Z,22.20
2023-01-17T11:38:58.112Z,21.00
2023-01-17T11:44:01.028Z,14.00
2023-01-17T11:49:02.617Z,14.40
2023-01-17T11:54:09.001Z,14.20
2023-01-17T11:59:31.675Z,13.30
2023-01-17T12:04:42.791Z,10.30
2023-01-17T12:09:56.242Z,10.20
2023-01-17T12:15:19.658Z,13.00
2023-01-17T12:20:55.953Z,13.20
2023-01-17T12:26:24.220Z,20.50
2023-01-17T12:31:37.065Z,18.00
2023-01-17T12:36:52.188Z,10.40
2023-01-17T12:42:18.533Z,13.40
2023-01-17T12:47:21.568Z,12.80
2023-01-17T12:52:46.499Z,16.60
2023-01-17T12:57:55.980Z,16.10
2023-01-17T13:03:16.064Z,23.10
2023-01-17T13:08:46.578Z,16.80
2023-01-17T13:13:51.461Z,15.70
2023-01-17T13:18:53.777Z,10.80
2023-01-17T13:24:04.012Z,11.80
2023-01-17T13:29:20.474Z,19.70
2023-01-17T13:34:33.299Z,11.10
2023-01-17T13:40:05.015Z,14.10
2023-01-17T13:45:09.248Z,26.00
2023-01-17T13:50:49.987Z,12.10
2023-01-17T13:55:53.401Z,9.20
2023-01-17T14:00:55.148Z,16.40
2023-01-17T14:05:57.331Z,19.10
2023-01-17T14:11:09.831Z,14.70
2023-01-17T14:16:29.016Z,18.00
2023-01-17T14:21:32.575Z,14.80
2023-01-17T14:26:46.417Z,18.60
2023-01-17T14:31:50.812Z,19.30
2023-01-17T14:37:04.341Z,25.40
2023-01-17T14:42:05.943Z,36.80
2023-01-17T14:47:14.113Z,38.10
2023-01-17T14:52:18.520Z,46.80
2023-01-17T14:57:28.039Z,34.90
2023-01-17T15:02:29.788Z,102.00
2023-01-17T15:07:32.348Z,145.00
2023-01-17T15:12:36.708Z,115.70
2023-01-17T15:22:39.891Z,54.10
2023-01-17T15:27:41.415Z,42.50
2023-01-17T15:32:47.869Z,40.90
2023-01-17T15:37:54.528Z,73.80
2023-01-17T15:43:01.109Z,47.00
2023-01-17T15:48:41.027Z,40.70
2023-01-17T15:53:43.252Z,40.60
2023-01-17T15:58:45.284Z,36.90
2023-01-17T16:03:54.712Z,31.70
2023-01-17T16:08:56.243Z,54.30
2023-01-17T16:13:57.709Z,56.90
2023-01-17T16:19:02.226Z,64.20
2023-01-17T16:24:09.358Z,50.90
2023-01-17T16:29:11.064Z,42.20
2023-01-17T16:34:13.118Z,34.80
2023-01-17T16:39:15.374Z,34.40
2023-01-17T16:44:17.110Z,70.20
2023-01-17T16:49:19.036Z,80.10
2023-01-17T16:54:20.551Z,70.60
2023-01-17T16:59:22.364Z,54.60
2023-01-17T17:04:23.844Z,76.50
2023-01-17T17:09:25.488Z,95.00
2023-01-17T17:14:27.396Z,83.80
2023-01-17T17:19:29.033Z,65.50
2023-01-17T17:24:30.532Z,76.80
2023-01-17T17:29:32.393Z,87.90
2023-01-17T17:34:36.744Z,102.50
2023-01-17T17:44:40.349Z,55.90
2023-01-17T17:49:42.250Z,56.30
2023-01-17T17:54:43.748Z,56.00
2023-01-17T17:59:45.272Z,99.90
2023-01-17T18:04:47.142Z,97.60
2023-01-17T18:09:49.745Z,103.60
2023-01-17T18:14:51.227Z,65.80
2023-01-17T18:19:54.815Z,45.80
2023-01-17T18:24:57.236Z,77.00
2023-01-17T18:29:59.478Z,37.30
2023-01-17T18:35:00.996Z,35.40
2023-01-17T18:40:02.781Z,52.10
2023-01-17T18:45:05.328Z,60.80
2023-01-17T18:50:07.073Z,48.00
2023-01-17T18:55:08.846Z,43.00
2023-01-17T19:00:11.318Z,39.20
2023-01-17T19:05:14.859Z,67.90
2023-01-17T19:10:16.407Z,51.00
2023-01-17T19:15:17.885Z,47.50
2023-01-17T19:20:19.356Z,43.70
2023-01-17T19:25:22.957Z,127.10
2023-01-17T19:30:24.568Z,90.10
2023-01-17T19:35:26.101Z,67.60
2023-01-17T19:40:27.984Z,48.80
2023-01-17T19:45:29.481Z,43.30
2023-01-17T19:50:31.048Z,84.00
2023-01-17T19:55:32.529Z,39.50
2023-01-17T20:00:45.904Z,51.00
2023-01-17T20:05:56.672Z,41.50
2023-01-17T20:11:03.001Z,34.30
2023-01-17T20:16:06.914Z,65.60
2023-01-17T20:21:14.644Z,39.00
2023-01-17T20:26:19.354Z,46.80
2023-01-17T20:31:23.533Z,58.00
2023-01-17T20:36:29.086Z,57.50
2023-01-17T20:41:36.466Z,124.10
2023-01-17T20:46:41.292Z,109.40
2023-01-17T20:51:44.906Z,73.70
2023-01-17T20:56:51.408Z,72.60
2023-01-17T21:01:53.035Z,41.30
2023-01-17T21:06:55.396Z,84.80
2023-01-17T21:12:01.440Z,63.30
2023-01-17T21:17:03.344Z,92.90
2023-01-17T21:22:05.507Z,49.80
2023-01-17T21:27:07.057Z,74.20
2023-01-17T21:32:08.900Z,44.00
2023-01-17T21:37:10.540Z,33.50
2023-01-17T21:42:12.088Z,36.70
2023-01-17T21:47:13.587Z,51.80
2023-01-17T21:52:21.153Z,45.70
2023-01-17T21:57:41.738Z,42.70
2023-01-17T22:02:48.141Z,22.80
2023-01-17T22:08:10.887Z,21.20
2023-01-17T22:13:17.978Z,20.00
2023-01-17T22:18:19.525Z,55.40
2023-01-17T22:23:21.184Z,28.70
2023-01-17T22:28:23.228Z,31.90
2023-01-17T22:33:24.706Z,37.30
2023-01-17T22:38:26.250Z,47.10
2023-01-17T22:43:27.715Z,32.10
2023-01-17T22:48:31.891Z,39.40
2023-01-17T22:53:33.853Z,22.50
2023-01-17T22:58:35.965Z,44.20
2023-01-17T23:03:38.582Z,26.40
2023-01-17T23:08:42.865Z,25.60
2023-01-17T23:13:44.348Z,23.10
2023-01-17T23:19:04.186Z,38.30
2023-01-17T23:24:06.308Z,26.50
2023-01-17T23:29:07.811Z,23.40
2023-01-17T23:34:09.327Z,26.80
2023-01-17T23:39:10.812Z,16.60
2023-01-17T23:44:12.483Z,46.30
2023-01-17T23:49:14.022Z,20.20
2023-01-17T23:54:15.505Z,30.20
2023-01-17T23:59:17.097Z,18.20
